sensor_id;sensor_type;location;lat;lon;timestamp;P1;durP1;ratioP1;P2;durP2;ratioP2
75810;SDS011;64449;50.016;19.954;2023-02-05T00:00:16;3.90;;;1.70;;
75810;SDS011;64449;50.016;19.954;2023-02-05T00:02:42;4.70;;;1.70;;
75810;SDS011;64449;50.016;19.954;2023-02-05T00:05:08;2.60;;;1.30;;
75810;SDS011;64449;50.016;19.954;2023-02-05T00:07:33;3.20;;;1.30;;
75810;SDS011;64449;50.016;19.954;2023-02-05T00:09:59;4.00;;;1.70;;
75810;SDS011;64449;50.016;19.954;2023-02-05T00:12:24;3.50;;;1.50;;
75810;SDS011;64449;50.016;19.954;2023-02-05T00:14:50;3.70;;;1.50;;
75810;SDS011;64449;50.016;19.954;2023-02-05T00:19:41;3.80;;;1.30;;
75810;SDS011;64449;50.016;19.954;2023-02-05T00:22:06;4.00;;;1.70;;
75810;SDS011;64449;50.016;19.954;2023-02-05T00:24:31;4.20;;;1.40;;
75810;SDS011;64449;50.016;19.954;2023-02-05T00:29:22;4.00;;;1.70;;
75810;SDS011;64449;50.016;19.954;2023-02-05T00:31:48;3.10;;;1.60;;
75810;SDS011;64449;50.016;19.954;2023-02-05T00:34:14;5.00;;;2.00;;
75810;SDS011;64449;50.016;19.954;2023-02-05T00:36:42;5.00;;;2.20;;
75810;SDS011;64449;50.016;19.954;2023-02-05T00:39:08;5.00;;;2.00;;
75810;SDS011;64449;50.016;19.954;2023-02-05T00:41:35;4.50;;;1.70;;
75810;SDS011;64449;50.016;19.954;2023-02-05T00:44:02;4.30;;;2.10;;
75810;SDS011;64449;50.016;19.954;2023-02-05T00:46:27;3.70;;;1.90;;
75810;SDS011;64449;50.016;19.954;2023-02-05T00:48:53;5.10;;;1.90;;
75810;SDS011;64449;50.016;19.954;2023-02-05T00:51:18;3.40;;;1.70;;
75810;SDS011;64449;50.016;19.954;2023-02-05T00:53:44;6.20;;;2.00;;
75810;SDS011;64449;50.016;19.954;2023-02-05T00:56:11;4.40;;;2.00;;
75810;SDS011;64449;50.016;19.954;2023-02-05T00:58:37;5.60;;;1.80;;
75810;SDS011;64449;50.016;19.954;2023-02-05T01:01:02;4.40;;;2.00;;
75810;SDS011;64449;50.016;19.954;2023-02-05T01:03:28;4.90;;;2.30;;
75810;SDS011;64449;50.016;19.954;2023-02-05T01:08:22;4.20;;;1.80;;
75810;SDS011;64449;50.016;19.954;2023-02-05T01:10:48;6.10;;;2.20;;
75810;SDS011;64449;50.016;19.954;2023-02-05T01:13:15;3.80;;;1.50;;
75810;SDS011;64449;50.016;19.954;2023-02-05T01:15:42;5.70;;;2.30;;
75810;SDS011;64449;50.016;19.954;2023-02-05T01:18:08;5.40;;;2.00;;
75810;SDS011;64449;50.016;19.954;2023-02-05T01:20:36;3.70;;;1.80;;
75810;SDS011;64449;50.016;19.954;2023-02-05T01:23:02;6.60;;;2.30;;
75810;SDS011;64449;50.016;19.954;2023-02-05T01:25:28;4.30;;;2.10;;
75810;SDS011;64449;50.016;19.954;2023-02-05T01:27:53;3.40;;;1.80;;
75810;SDS011;64449;50.016;19.954;2023-02-05T01:30:21;5.60;;;2.40;;
75810;SDS011;64449;50.016;19.954;2023-02-05T01:32:51;4.40;;;2.20;;
75810;SDS011;64449;50.016;19.954;2023-02-05T01:35:17;7.30;;;2.40;;
75810;SDS011;64449;50.016;19.954;2023-02-05T01:37:42;5.30;;;2.40;;
75810;SDS011;64449;50.016;19.954;2023-02-05T01:40:08;5.30;;;2.50;;
75810;SDS011;64449;50.016;19.954;2023-02-05T01:42:40;3.90;;;2.00;;
75810;SDS011;64449;50.016;19.954;2023-02-05T01:47:59;6.40;;;2.50;;
75810;SDS011;64449;50.016;19.954;2023-02-05T01:50:48;5.10;;;2.70;;
75810;SDS011;64449;50.016;19.954;2023-02-05T01:53:18;5.50;;;3.00;;
75810;SDS011;64449;50.016;19.954;2023-02-05T01:55:53;5.60;;;2.70;;
75810;SDS011;64449;50.016;19.954;2023-02-05T01:58:22;9.10;;;3.40;;
75810;SDS011;64449;50.016;19.954;2023-02-05T02:00:50;5.10;;;2.60;;
75810;SDS011;64449;50.016;19.954;2023-02-05T02:03:15;4.00;;;2.40;;
75810;SDS011;64449;50.016;19.954;2023-02-05T02:05:42;6.10;;;2.20;;
75810;SDS011;64449;50.016;19.954;2023-02-05T02:10:34;4.40;;;1.90;;
75810;SDS011;64449;50.016;19.954;2023-02-05T02:13:00;5.20;;;2.20;;
75810;SDS011;64449;50.016;19.954;2023-02-05T02:15:26;6.30;;;2.30;;
75810;SDS011;64449;50.016;19.954;2023-02-05T02:17:53;5.30;;;2.40;;
75810;SDS011;64449;50.016;19.954;2023-02-05T02:20:45;3.80;;;2.00;;
75810;SDS011;64449;50.016;19.954;2023-02-05T02:28:39;3.80;;;2.10;;
75810;SDS011;64449;50.016;19.954;2023-02-05T02:36:46;6.20;;;2.50;;
75810;SDS011;64449;50.016;19.954;2023-02-05T02:39:24;5.40;;;2.30;;
75810;SDS011;64449;50.016;19.954;2023-02-05T02:42:05;4.10;;;1.60;;
75810;SDS011;64449;50.016;19.954;2023-02-05T02:44:36;4.60;;;1.90;;
75810;SDS011;64449;50.016;19.954;2023-02-05T02:47:10;3.50;;;1.50;;
75810;SDS011;64449;50.016;19.954;2023-02-05T02:49:43;5.40;;;2.30;;
75810;SDS011;64449;50.016;19.954;2023-02-05T02:52:14;4.60;;;2.20;;
75810;SDS011;64449;50.016;19.954;2023-02-05T02:54:43;5.50;;;2.20;;
75810;SDS011;64449;50.016;19.954;2023-02-05T02:57:11;4.70;;;2.00;;
75810;SDS011;64449;50.016;19.954;2023-02-05T02:59:39;5.80;;;2.20;;
75810;SDS011;64449;50.016;19.954;2023-02-05T03:02:08;5.60;;;2.70;;
75810;SDS011;64449;50.016;19.954;2023-02-05T03:04:37;4.20;;;2.20;;
75810;SDS011;64449;50.016;19.954;2023-02-05T03:07:12;4.90;;;2.40;;
75810;SDS011;64449;50.016;19.954;2023-02-05T03:09:46;4.70;;;2.20;;
75810;SDS011;64449;50.016;19.954;2023-02-05T03:12:19;5.90;;;2.20;;
75810;SDS011;64449;50.016;19.954;2023-02-05T03:14:45;4.20;;;2.00;;
75810;SDS011;64449;50.016;19.954;2023-02-05T03:17:10;6.00;;;2.10;;
75810;SDS011;64449;50.016;19.954;2023-02-05T03:19:42;4.70;;;2.00;;
75810;SDS011;64449;50.016;19.954;2023-02-05T03:22:09;5.90;;;2.10;;
75810;SDS011;64449;50.016;19.954;2023-02-05T03:27:00;5.50;;;2.40;;
75810;SDS011;64449;50.016;19.954;2023-02-05T03:29:28;7.50;;;2.20;;
75810;SDS011;64449;50.016;19.954;2023-02-05T03:46:36;4.80;;;1.80;;
75810;SDS011;64449;50.016;19.954;2023-02-05T03:52:21;4.40;;;1.80;;
75810;SDS011;64449;50.016;19.954;2023-02-05T03:55:06;5.50;;;2.00;;
75810;SDS011;64449;50.016;19.954;2023-02-05T04:00:26;3.70;;;1.30;;
75810;SDS011;64449;50.016;19.954;2023-02-05T04:02:53;4.60;;;1.90;;
75810;SDS011;64449;50.016;19.954;2023-02-05T04:05:19;5.10;;;2.30;;
75810;SDS011;64449;50.016;19.954;2023-02-05T04:07:49;5.90;;;2.30;;
75810;SDS011;64449;50.016;19.954;2023-02-05T04:10:15;6.10;;;2.20;;
75810;SDS011;64449;50.016;19.954;2023-02-05T04:12:42;3.10;;;1.60;;
75810;SDS011;64449;50.016;19.954;2023-02-05T04:15:07;5.10;;;2.10;;
75810;SDS011;64449;50.016;19.954;2023-02-05T04:17:33;4.00;;;1.90;;
75810;SDS011;64449;50.016;19.954;2023-02-05T04:19:59;4.70;;;1.70;;
75810;SDS011;64449;50.016;19.954;2023-02-05T04:22:24;4.50;;;1.70;;
75810;SDS011;64449;50.016;19.954;2023-02-05T04:24:50;3.30;;;1.80;;
75810;SDS011;64449;50.016;19.954;2023-02-05T04:27:15;3.80;;;2.10;;
75810;SDS011;64449;50.016;19.954;2023-02-05T04:29:40;5.10;;;2.10;;
75810;SDS011;64449;50.016;19.954;2023-02-05T04:32:06;3.80;;;1.70;;
75810;SDS011;64449;50.016;19.954;2023-02-05T04:34:31;5.40;;;1.90;;
75810;SDS011;64449;50.016;19.954;2023-02-05T04:36:57;4.80;;;2.00;;
75810;SDS011;64449;50.016;19.954;2023-02-05T04:39:22;5.80;;;1.80;;
75810;SDS011;64449;50.016;19.954;2023-02-05T04:41:47;5.20;;;1.60;;
75810;SDS011;64449;50.016;19.954;2023-02-05T04:44:13;4.00;;;1.90;;
75810;SDS011;64449;50.016;19.954;2023-02-05T04:46:38;5.30;;;2.50;;
75810;SDS011;64449;50.016;19.954;2023-02-05T04:49:04;3.70;;;1.60;;
75810;SDS011;64449;50.016;19.954;2023-02-05T04:51:29;5.10;;;2.10;;
75810;SDS011;64449;50.016;19.954;2023-02-05T04:53:54;4.10;;;1.90;;
75810;SDS011;64449;50.016;19.954;2023-02-05T04:56:20;5.70;;;2.00;;
75810;SDS011;64449;50.016;19.954;2023-02-05T04:58:45;4.60;;;2.20;;
75810;SDS011;64449;50.016;19.954;2023-02-05T05:01:15;4.80;;;1.70;;
75810;SDS011;64449;50.016;19.954;2023-02-05T05:03:42;5.10;;;2.00;;
75810;SDS011;64449;50.016;19.954;2023-02-05T05:06:07;4.40;;;1.70;;
75810;SDS011;64449;50.016;19.954;2023-02-05T05:08:33;6.50;;;2.00;;
75810;SDS011;64449;50.016;19.954;2023-02-05T05:10:59;3.60;;;1.90;;
75810;SDS011;64449;50.016;19.954;2023-02-05T05:13:31;4.80;;;2.10;;
75810;SDS011;64449;50.016;19.954;2023-02-05T05:15:57;3.80;;;1.70;;
75810;SDS011;64449;50.016;19.954;2023-02-05T05:18:23;3.90;;;1.80;;
75810;SDS011;64449;50.016;19.954;2023-02-05T05:20:48;5.40;;;1.90;;
75810;SDS011;64449;50.016;19.954;2023-02-05T05:23:14;4.20;;;1.70;;
75810;SDS011;64449;50.016;19.954;2023-02-05T05:25:42;4.50;;;1.70;;
75810;SDS011;64449;50.016;19.954;2023-02-05T05:28:09;3.70;;;1.70;;
75810;SDS011;64449;50.016;19.954;2023-02-05T05:30:39;3.20;;;1.60;;
75810;SDS011;64449;50.016;19.954;2023-02-05T05:33:05;5.50;;;1.90;;
75810;SDS011;64449;50.016;19.954;2023-02-05T05:35:31;4.60;;;1.80;;
75810;SDS011;64449;50.016;19.954;2023-02-05T05:37:57;3.70;;;1.80;;
75810;SDS011;64449;50.016;19.954;2023-02-05T05:40:23;4.40;;;1.70;;
75810;SDS011;64449;50.016;19.954;2023-02-05T05:43:12;4.40;;;1.60;;
75810;SDS011;64449;50.016;19.954;2023-02-05T05:45:57;4.70;;;1.40;;
75810;SDS011;64449;50.016;19.954;2023-02-05T05:48:23;3.60;;;1.90;;
75810;SDS011;64449;50.016;19.954;2023-02-05T05:50:48;4.10;;;1.60;;
75810;SDS011;64449;50.016;19.954;2023-02-05T05:55:39;3.30;;;1.40;;
75810;SDS011;64449;50.016;19.954;2023-02-05T05:58:06;3.90;;;1.80;;
75810;SDS011;64449;50.016;19.954;2023-02-05T06:00:31;4.90;;;1.70;;
75810;SDS011;64449;50.016;19.954;2023-02-05T06:02:57;2.90;;;1.50;;
75810;SDS011;64449;50.016;19.954;2023-02-05T06:05:22;3.90;;;1.70;;
75810;SDS011;64449;50.016;19.954;2023-02-05T06:07:47;2.50;;;1.30;;
75810;SDS011;64449;50.016;19.954;2023-02-05T06:10:13;3.70;;;1.90;;
75810;SDS011;64449;50.016;19.954;2023-02-05T06:12:38;3.90;;;1.70;;
75810;SDS011;64449;50.016;19.954;2023-02-05T06:15:04;4.20;;;1.60;;
75810;SDS011;64449;50.016;19.954;2023-02-05T06:17:30;2.50;;;1.30;;
75810;SDS011;64449;50.016;19.954;2023-02-05T06:19:55;5.40;;;2.40;;
75810;SDS011;64449;50.016;19.954;2023-02-05T06:22:21;4.70;;;2.60;;
75810;SDS011;64449;50.016;19.954;2023-02-05T06:24:46;7.70;;;3.60;;
75810;SDS011;64449;50.016;19.954;2023-02-05T06:27:11;5.60;;;2.10;;
75810;SDS011;64449;50.016;19.954;2023-02-05T06:29:37;4.80;;;2.30;;
75810;SDS011;64449;50.016;19.954;2023-02-05T06:32:02;3.30;;;1.60;;
75810;SDS011;64449;50.016;19.954;2023-02-05T06:34:28;5.50;;;2.10;;
75810;SDS011;64449;50.016;19.954;2023-02-05T06:36:53;2.70;;;1.50;;
75810;SDS011;64449;50.016;19.954;2023-02-05T06:39:19;4.40;;;1.90;;
75810;SDS011;64449;50.016;19.954;2023-02-05T06:41:45;5.00;;;1.90;;
75810;SDS011;64449;50.016;19.954;2023-02-05T06:44:10;4.40;;;1.70;;
75810;SDS011;64449;50.016;19.954;2023-02-05T06:46:36;4.10;;;2.20;;
75810;SDS011;64449;50.016;19.954;2023-02-05T06:49:01;4.90;;;2.00;;
75810;SDS011;64449;50.016;19.954;2023-02-05T06:51:27;4.00;;;1.60;;
75810;SDS011;64449;50.016;19.954;2023-02-05T06:53:52;3.90;;;2.20;;
75810;SDS011;64449;50.016;19.954;2023-02-05T06:56:19;3.80;;;1.80;;
75810;SDS011;64449;50.016;19.954;2023-02-05T07:01:10;5.90;;;1.90;;
75810;SDS011;64449;50.016;19.954;2023-02-05T07:03:35;3.20;;;1.50;;
75810;SDS011;64449;50.016;19.954;2023-02-05T07:06:02;5.30;;;1.60;;
75810;SDS011;64449;50.016;19.954;2023-02-05T07:08:29;5.20;;;1.80;;
75810;SDS011;64449;50.016;19.954;2023-02-05T07:13:19;4.80;;;1.70;;
75810;SDS011;64449;50.016;19.954;2023-02-05T07:15:45;4.30;;;1.70;;
75810;SDS011;64449;50.016;19.954;2023-02-05T07:18:11;4.50;;;2.10;;
75810;SDS011;64449;50.016;19.954;2023-02-05T07:20:37;5.50;;;2.10;;
75810;SDS011;64449;50.016;19.954;2023-02-05T07:23:02;3.40;;;1.50;;
75810;SDS011;64449;50.016;19.954;2023-02-05T07:25:29;4.10;;;1.60;;
75810;SDS011;64449;50.016;19.954;2023-02-05T07:28:01;4.90;;;2.00;;
75810;SDS011;64449;50.016;19.954;2023-02-05T07:30:26;4.70;;;2.00;;
75810;SDS011;64449;50.016;19.954;2023-02-05T07:32:52;4.20;;;1.70;;
75810;SDS011;64449;50.016;19.954;2023-02-05T07:35:17;2.90;;;1.40;;
75810;SDS011;64449;50.016;19.954;2023-02-05T07:37:44;3.80;;;1.80;;
75810;SDS011;64449;50.016;19.954;2023-02-05T07:40:09;5.40;;;1.60;;
75810;SDS011;64449;50.016;19.954;2023-02-05T07:42:35;3.10;;;1.40;;
75810;SDS011;64449;50.016;19.954;2023-02-05T07:45:00;3.00;;;1.40;;
75810;SDS011;64449;50.016;19.954;2023-02-05T07:47:26;4.00;;;2.50;;
75810;SDS011;64449;50.016;19.954;2023-02-05T07:49:51;5.90;;;2.50;;
75810;SDS011;64449;50.016;19.954;2023-02-05T07:52:16;4.80;;;1.90;;
75810;SDS011;64449;50.016;19.954;2023-02-05T07:54:42;4.20;;;2.10;;
75810;SDS011;64449;50.016;19.954;2023-02-05T07:57:07;6.20;;;3.20;;
75810;SDS011;64449;50.016;19.954;2023-02-05T07:59:33;5.80;;;2.80;;
75810;SDS011;64449;50.016;19.954;2023-02-05T08:01:58;5.80;;;2.60;;
75810;SDS011;64449;50.016;19.954;2023-02-05T08:04:24;6.10;;;3.10;;
75810;SDS011;64449;50.016;19.954;2023-02-05T08:06:49;7.30;;;3.40;;
75810;SDS011;64449;50.016;19.954;2023-02-05T08:09:15;7.60;;;2.80;;
75810;SDS011;64449;50.016;19.954;2023-02-05T08:11:41;4.40;;;1.80;;
75810;SDS011;64449;50.016;19.954;2023-02-05T08:16:31;5.50;;;2.60;;
75810;SDS011;64449;50.016;19.954;2023-02-05T08:18:57;8.70;;;3.90;;
75810;SDS011;64449;50.016;19.954;2023-02-05T08:21:22;4.20;;;2.10;;
75810;SDS011;64449;50.016;19.954;2023-02-05T08:23:48;5.60;;;3.50;;
75810;SDS011;64449;50.016;19.954;2023-02-05T08:26:14;6.30;;;3.10;;
75810;SDS011;64449;50.016;19.954;2023-02-05T08:28:40;7.50;;;3.90;;
75810;SDS011;64449;50.016;19.954;2023-02-05T08:31:10;5.80;;;2.20;;
75810;SDS011;64449;50.016;19.954;2023-02-05T08:33:37;9.40;;;4.60;;
75810;SDS011;64449;50.016;19.954;2023-02-05T08:36:03;5.80;;;3.00;;
75810;SDS011;64449;50.016;19.954;2023-02-05T08:40:53;7.80;;;3.50;;
75810;SDS011;64449;50.016;19.954;2023-02-05T08:43:19;5.60;;;2.60;;
75810;SDS011;64449;50.016;19.954;2023-02-05T08:45:45;7.50;;;3.80;;
75810;SDS011;64449;50.016;19.954;2023-02-05T08:48:14;11.10;;;4.90;;
75810;SDS011;64449;50.016;19.954;2023-02-05T08:50:39;7.50;;;3.70;;
75810;SDS011;64449;50.016;19.954;2023-02-05T08:53:05;8.80;;;3.70;;
75810;SDS011;64449;50.016;19.954;2023-02-05T08:55:31;8.80;;;3.90;;
75810;SDS011;64449;50.016;19.954;2023-02-05T08:57:57;6.80;;;3.10;;
75810;SDS011;64449;50.016;19.954;2023-02-05T09:02:48;5.90;;;2.20;;
75810;SDS011;64449;50.016;19.954;2023-02-05T09:05:14;5.60;;;3.10;;
75810;SDS011;64449;50.016;19.954;2023-02-05T09:07:40;8.30;;;3.80;;
75810;SDS011;64449;50.016;19.954;2023-02-05T09:10:07;8.60;;;4.70;;
75810;SDS011;64449;50.016;19.954;2023-02-05T09:12:33;8.30;;;4.00;;
75810;SDS011;64449;50.016;19.954;2023-02-05T09:14:58;6.20;;;2.80;;
75810;SDS011;64449;50.016;19.954;2023-02-05T09:17:24;7.30;;;3.20;;
75810;SDS011;64449;50.016;19.954;2023-02-05T09:19:49;7.00;;;3.50;;
75810;SDS011;64449;50.016;19.954;2023-02-05T09:22:14;7.90;;;4.00;;
75810;SDS011;64449;50.016;19.954;2023-02-05T09:24:42;7.30;;;3.40;;
75810;SDS011;64449;50.016;19.954;2023-02-05T09:27:07;8.80;;;3.10;;
75810;SDS011;64449;50.016;19.954;2023-02-05T09:29:33;13.10;;;5.40;;
75810;SDS011;64449;50.016;19.954;2023-02-05T09:31:58;8.40;;;3.50;;
75810;SDS011;64449;50.016;19.954;2023-02-05T09:36:49;6.30;;;2.40;;
75810;SDS011;64449;50.016;19.954;2023-02-05T09:39:15;3.90;;;2.00;;
75810;SDS011;64449;50.016;19.954;2023-02-05T09:41:46;3.40;;;1.80;;
75810;SDS011;64449;50.016;19.954;2023-02-05T09:47:13;2.30;;;1.10;;
75810;SDS011;64449;50.016;19.954;2023-02-05T09:52:41;3.20;;;1.00;;
75810;SDS011;64449;50.016;19.954;2023-02-05T09:55:25;3.40;;;1.20;;
75810;SDS011;64449;50.016;19.954;2023-02-05T09:57:53;3.00;;;1.30;;
75810;SDS011;64449;50.016;19.954;2023-02-05T10:00:29;1.80;;;0.80;;
75810;SDS011;64449;50.016;19.954;2023-02-05T10:08:40;3.10;;;1.40;;
75810;SDS011;64449;50.016;19.954;2023-02-05T10:14:07;3.10;;;1.20;;
75810;SDS011;64449;50.016;19.954;2023-02-05T10:16:47;2.30;;;1.30;;
75810;SDS011;64449;50.016;19.954;2023-02-05T10:23:15;4.30;;;1.60;;
75810;SDS011;64449;50.016;19.954;2023-02-05T10:25:41;2.90;;;1.10;;
75810;SDS011;64449;50.016;19.954;2023-02-05T10:36:10;3.30;;;1.30;;
75810;SDS011;64449;50.016;19.954;2023-02-05T10:38:46;2.30;;;1.20;;
75810;SDS011;64449;50.016;19.954;2023-02-05T10:41:21;4.70;;;1.80;;
75810;SDS011;64449;50.016;19.954;2023-02-05T10:46:36;4.70;;;2.20;;
75810;SDS011;64449;50.016;19.954;2023-02-05T10:51:50;5.10;;;1.70;;
75810;SDS011;64449;50.016;19.954;2023-02-05T10:54:25;4.30;;;1.70;;
75810;SDS011;64449;50.016;19.954;2023-02-05T10:56:53;4.30;;;1.50;;
75810;SDS011;64449;50.016;19.954;2023-02-05T10:59:21;3.30;;;1.70;;
75810;SDS011;64449;50.016;19.954;2023-02-05T11:01:50;3.50;;;1.60;;
75810;SDS011;64449;50.016;19.954;2023-02-05T11:04:18;4.10;;;1.40;;
75810;SDS011;64449;50.016;19.954;2023-02-05T11:06:52;5.00;;;2.00;;
75810;SDS011;64449;50.016;19.954;2023-02-05T11:11:52;4.60;;;1.80;;
75810;SDS011;64449;50.016;19.954;2023-02-05T11:14:42;4.30;;;2.00;;
75810;SDS011;64449;50.016;19.954;2023-02-05T11:20:22;6.10;;;2.30;;
75810;SDS011;64449;50.016;19.954;2023-02-05T11:22:45;5.30;;;2.20;;
75810;SDS011;64449;50.016;19.954;2023-02-05T11:27:48;3.50;;;1.80;;
75810;SDS011;64449;50.016;19.954;2023-02-05T11:30:22;4.70;;;2.00;;
75810;SDS011;64449;50.016;19.954;2023-02-05T11:32:49;5.10;;;2.10;;
75810;SDS011;64449;50.016;19.954;2023-02-05T11:35:22;5.20;;;2.40;;
75810;SDS011;64449;50.016;19.954;2023-02-05T11:38:07;7.40;;;2.20;;
75810;SDS011;64449;50.016;19.954;2023-02-05T11:40:34;4.90;;;1.90;;
75810;SDS011;64449;50.016;19.954;2023-02-05T11:43:05;3.40;;;1.30;;
75810;SDS011;64449;50.016;19.954;2023-02-05T11:45:33;6.10;;;2.40;;
75810;SDS011;64449;50.016;19.954;2023-02-05T11:48:05;5.30;;;2.50;;
75810;SDS011;64449;50.016;19.954;2023-02-05T11:50:47;4.40;;;2.00;;
75810;SDS011;64449;50.016;19.954;2023-02-05T11:53:16;3.90;;;1.70;;
75810;SDS011;64449;50.016;19.954;2023-02-05T11:55:43;4.70;;;2.20;;
75810;SDS011;64449;50.016;19.954;2023-02-05T11:58:20;5.70;;;2.40;;
75810;SDS011;64449;50.016;19.954;2023-02-05T12:00:58;4.60;;;2.00;;
75810;SDS011;64449;50.016;19.954;2023-02-05T12:03:30;5.20;;;2.20;;
75810;SDS011;64449;50.016;19.954;2023-02-05T12:08:51;4.10;;;1.70;;
75810;SDS011;64449;50.016;19.954;2023-02-05T12:13:44;4.10;;;1.90;;
75810;SDS011;64449;50.016;19.954;2023-02-05T12:16:51;5.10;;;1.90;;
75810;SDS011;64449;50.016;19.954;2023-02-05T12:19:24;3.40;;;1.80;;
75810;SDS011;64449;50.016;19.954;2023-02-05T12:24:56;5.60;;;1.80;;
75810;SDS011;64449;50.016;19.954;2023-02-05T12:27:31;7.10;;;2.90;;
75810;SDS011;64449;50.016;19.954;2023-02-05T12:33:02;4.50;;;2.00;;
75810;SDS011;64449;50.016;19.954;2023-02-05T12:38:52;4.40;;;1.60;;
75810;SDS011;64449;50.016;19.954;2023-02-05T12:52:05;3.50;;;1.70;;
75810;SDS011;64449;50.016;19.954;2023-02-05T12:57:13;4.30;;;1.80;;
75810;SDS011;64449;50.016;19.954;2023-02-05T12:59:51;3.60;;;1.40;;
75810;SDS011;64449;50.016;19.954;2023-02-05T13:02:36;4.60;;;1.90;;
75810;SDS011;64449;50.016;19.954;2023-02-05T13:05:29;4.80;;;1.60;;
75810;SDS011;64449;50.016;19.954;2023-02-05T13:13:32;5.30;;;1.70;;
75810;SDS011;64449;50.016;19.954;2023-02-05T13:16:06;4.30;;;1.70;;
75810;SDS011;64449;50.016;19.954;2023-02-05T13:18:37;5.30;;;1.90;;
75810;SDS011;64449;50.016;19.954;2023-02-05T13:21:16;5.60;;;1.80;;
75810;SDS011;64449;50.016;19.954;2023-02-05T13:24:24;5.30;;;2.10;;
75810;SDS011;64449;50.016;19.954;2023-02-05T13:27:21;4.00;;;1.60;;
75810;SDS011;64449;50.016;19.954;2023-02-05T13:30:30;5.40;;;1.80;;
75810;SDS011;64449;50.016;19.954;2023-02-05T13:33:06;3.80;;;1.40;;
75810;SDS011;64449;50.016;19.954;2023-02-05T13:35:34;4.50;;;1.90;;
75810;SDS011;64449;50.016;19.954;2023-02-05T13:43:39;5.60;;;2.70;;
75810;SDS011;64449;50.016;19.954;2023-02-05T13:46:24;5.10;;;2.10;;
75810;SDS011;64449;50.016;19.954;2023-02-05T13:52:01;4.40;;;1.70;;
75810;SDS011;64449;50.016;19.954;2023-02-05T13:58:07;3.70;;;1.80;;
75810;SDS011;64449;50.016;19.954;2023-02-05T14:00:43;4.10;;;2.00;;
75810;SDS011;64449;50.016;19.954;2023-02-05T14:03:21;5.50;;;2.20;;
75810;SDS011;64449;50.016;19.954;2023-02-05T14:05:51;5.00;;;1.90;;
75810;SDS011;64449;50.016;19.954;2023-02-05T14:08:26;3.60;;;2.00;;
75810;SDS011;64449;50.016;19.954;2023-02-05T14:11:03;5.30;;;2.10;;
75810;SDS011;64449;50.016;19.954;2023-02-05T14:13:30;5.30;;;2.50;;
75810;SDS011;64449;50.016;19.954;2023-02-05T14:16:31;5.30;;;2.20;;
75810;SDS011;64449;50.016;19.954;2023-02-05T14:19:17;4.30;;;2.10;;
75810;SDS011;64449;50.016;19.954;2023-02-05T14:24:25;5.30;;;1.80;;
75810;SDS011;64449;50.016;19.954;2023-02-05T14:29:55;4.70;;;2.50;;
75810;SDS011;64449;50.016;19.954;2023-02-05T14:34:58;4.30;;;1.90;;
75810;SDS011;64449;50.016;19.954;2023-02-05T14:40:10;5.60;;;2.70;;
75810;SDS011;64449;50.016;19.954;2023-02-05T14:42:38;5.10;;;2.40;;
75810;SDS011;64449;50.016;19.954;2023-02-05T14:45:04;3.90;;;1.70;;
75810;SDS011;64449;50.016;19.954;2023-02-05T14:47:32;7.90;;;3.00;;
75810;SDS011;64449;50.016;19.954;2023-02-05T14:50:05;5.10;;;2.60;;
75810;SDS011;64449;50.016;19.954;2023-02-05T14:52:35;6.10;;;2.30;;
75810;SDS011;64449;50.016;19.954;2023-02-05T14:57:47;6.10;;;2.60;;
75810;SDS011;64449;50.016;19.954;2023-02-05T15:00:21;5.60;;;2.60;;
75810;SDS011;64449;50.016;19.954;2023-02-05T15:05:40;4.40;;;2.10;;
75810;SDS011;64449;50.016;19.954;2023-02-05T15:13:38;6.00;;;2.20;;
75810;SDS011;64449;50.016;19.954;2023-02-05T15:18:42;5.60;;;3.00;;
75810;SDS011;64449;50.016;19.954;2023-02-05T15:21:29;6.60;;;2.60;;
75810;SDS011;64449;50.016;19.954;2023-02-05T15:24:08;4.80;;;2.60;;
75810;SDS011;64449;50.016;19.954;2023-02-05T15:29:51;7.10;;;2.80;;
75810;SDS011;64449;50.016;19.954;2023-02-05T15:32:29;6.70;;;2.50;;
75810;SDS011;64449;50.016;19.954;2023-02-05T15:35:04;5.70;;;2.70;;
75810;SDS011;64449;50.016;19.954;2023-02-05T15:37:36;5.70;;;2.80;;
75810;SDS011;64449;50.016;19.954;2023-02-05T15:43:21;5.80;;;2.70;;
75810;SDS011;64449;50.016;19.954;2023-02-05T15:45:50;8.40;;;3.00;;
75810;SDS011;64449;50.016;19.954;2023-02-05T15:48:25;7.80;;;3.20;;
75810;SDS011;64449;50.016;19.954;2023-02-05T15:50:52;6.50;;;3.20;;
75810;SDS011;64449;50.016;19.954;2023-02-05T15:53:33;9.50;;;3.30;;
75810;SDS011;64449;50.016;19.954;2023-02-05T15:56:07;7.00;;;3.20;;
75810;SDS011;64449;50.016;19.954;2023-02-05T15:58:37;6.90;;;2.70;;
75810;SDS011;64449;50.016;19.954;2023-02-05T16:01:09;7.20;;;3.40;;
75810;SDS011;64449;50.016;19.954;2023-02-05T16:03:35;10.00;;;4.30;;
75810;SDS011;64449;50.016;19.954;2023-02-05T16:06:04;7.90;;;3.60;;
75810;SDS011;64449;50.016;19.954;2023-02-05T16:08:33;7.90;;;3.40;;
75810;SDS011;64449;50.016;19.954;2023-02-05T16:10:59;7.20;;;4.10;;
75810;SDS011;64449;50.016;19.954;2023-02-05T16:13:29;8.70;;;3.70;;
75810;SDS011;64449;50.016;19.954;2023-02-05T16:18:44;7.70;;;3.00;;
75810;SDS011;64449;50.016;19.954;2023-02-05T16:23:46;7.60;;;3.60;;
75810;SDS011;64449;50.016;19.954;2023-02-05T16:26:43;6.30;;;2.90;;
75810;SDS011;64449;50.016;19.954;2023-02-05T16:29:24;10.10;;;4.10;;
75810;SDS011;64449;50.016;19.954;2023-02-05T16:31:58;9.70;;;3.70;;
75810;SDS011;64449;50.016;19.954;2023-02-05T16:34:31;9.10;;;3.50;;
75810;SDS011;64449;50.016;19.954;2023-02-05T16:37:00;10.20;;;3.60;;
75810;SDS011;64449;50.016;19.954;2023-02-05T16:39:32;9.60;;;4.00;;
75810;SDS011;64449;50.016;19.954;2023-02-05T16:42:06;6.60;;;3.50;;
75810;SDS011;64449;50.016;19.954;2023-02-05T16:44:41;8.30;;;4.00;;
75810;SDS011;64449;50.016;19.954;2023-02-05T16:49:44;8.50;;;3.90;;
75810;SDS011;64449;50.016;19.954;2023-02-05T16:55:45;8.10;;;4.10;;
75810;SDS011;64449;50.016;19.954;2023-02-05T16:57:51;8.40;;;4.40;;
75810;SDS011;64449;50.016;19.954;2023-02-05T17:00:18;8.30;;;3.80;;
75810;SDS011;64449;50.016;19.954;2023-02-05T17:02:52;9.60;;;4.20;;
75810;SDS011;64449;50.016;19.954;2023-02-05T17:05:27;12.50;;;5.80;;
75810;SDS011;64449;50.016;19.954;2023-02-05T17:08:05;10.00;;;4.10;;
75810;SDS011;64449;50.016;19.954;2023-02-05T17:10:49;10.80;;;4.30;;
75810;SDS011;64449;50.016;19.954;2023-02-05T17:19:00;10.80;;;5.00;;
75810;SDS011;64449;50.016;19.954;2023-02-05T17:21:41;8.90;;;4.10;;
75810;SDS011;64449;50.016;19.954;2023-02-05T17:24:10;9.60;;;5.00;;
75810;SDS011;64449;50.016;19.954;2023-02-05T17:26:39;8.70;;;4.40;;
75810;SDS011;64449;50.016;19.954;2023-02-05T17:29:13;8.30;;;3.80;;
75810;SDS011;64449;50.016;19.954;2023-02-05T17:34:08;7.40;;;3.50;;
75810;SDS011;64449;50.016;19.954;2023-02-05T17:36:34;9.90;;;4.10;;
75810;SDS011;64449;50.016;19.954;2023-02-05T17:39:00;10.60;;;4.10;;
75810;SDS011;64449;50.016;19.954;2023-02-05T17:41:27;13.10;;;5.60;;
75810;SDS011;64449;50.016;19.954;2023-02-05T17:44:15;13.50;;;5.90;;
75810;SDS011;64449;50.016;19.954;2023-02-05T17:46:41;11.00;;;4.60;;
75810;SDS011;64449;50.016;19.954;2023-02-05T17:49:08;12.10;;;5.00;;
75810;SDS011;64449;50.016;19.954;2023-02-05T17:53:59;10.00;;;4.30;;
75810;SDS011;64449;50.016;19.954;2023-02-05T17:56:24;12.80;;;5.50;;
75810;SDS011;64449;50.016;19.954;2023-02-05T17:58:50;10.80;;;4.70;;
75810;SDS011;64449;50.016;19.954;2023-02-05T18:01:17;10.90;;;6.00;;
75810;SDS011;64449;50.016;19.954;2023-02-05T18:03:44;14.80;;;6.10;;
75810;SDS011;64449;50.016;19.954;2023-02-05T18:06:13;11.20;;;5.30;;
75810;SDS011;64449;50.016;19.954;2023-02-05T18:08:40;12.30;;;5.40;;